Time;durP1;ratioP1;P1;durP2;ratioP2;P2;SDS_P1;SDS_P2;PMS_P1;PMS_P2;Temp;Humidity;BMP_temperature;BMP_pressure;BME280_temperature;BME280_humidity;BME280_pressure;Samples;Min_cycle;Max_cycle;Signal;HPM_P1;HPM_P2
2021/06/17 00:00:24;;;;;;;;;;;;;;;23.76;54.20;101178.88;2061216;28;4389;-73
2021/06/17 00:01:51;;;;;;;;;;;;;;;23.71;54.13;101179.97;2060444;28;4468;-73
2021/06/17 00:03:18;;;;;;;;;;;;;;;23.72;54.12;101177.94;2061213;28;4011;-72
2021/06/17 00:04:45;;;;;;;;;;;;;;;23.73;54.08;101185.31;2060777;28;4365;-73
2021/06/17 00:06:12;;;;;;;;;;;;;;;23.73;53.98;101177.56;2061219;28;3780;-74
2021/06/17 00:07:39;;;;;;;;;;;;;;;23.74;53.91;101181.28;2061122;28;4179;-72
2021/06/17 00:09:06;;;;;;;;;;;;;;;23.75;53.93;101180.06;2061544;28;4411;-73
2021/06/17 00:10:32;;;;;;;;;;;;;;;23.76;53.92;101181.72;2060894;28;4039;-73
2021/06/17 00:12:02;;;;;;;;;;;;;;;23.75;53.95;101178.03;2060599;28;3818;-71
2021/06/17 00:13:28;;;;;;;;;;;;;;;23.75;53.99;101180.06;2060477;28;4123;-73
2021/06/17 00:14:54;;;;;;;;;;;;;;;23.76;53.94;101182.56;2060736;28;4253;-73
2021/06/17 00:16:22;;;;;;;;;;;;;;;23.76;53.91;101174.00;2061144;28;4351;-73
2021/06/17 00:17:49;;;;;;;;;;;;;;;23.77;53.90;101177.69;2061692;28;3804;-73
2021/06/17 00:19:15;;;;;;;;;;;;;;;23.77;53.85;101178.50;2062588;28;4232;-72
2021/06/17 00:20:41;;;;;;;;;;;;;;;23.77;53.87;101177.69;2060744;28;4273;-71
2021/06/17 00:22:07;;;;;;;;;;;;;;;23.77;53.89;101175.66;2060821;28;3784;-72
2021/06/17 00:23:36;;;;;;;;;;;;;;;23.77;53.92;101177.69;2061098;28;4197;-71
2021/06/17 00:25:03;;;;;;;;;;;;;;;23.77;53.89;101177.69;2060423;28;4216;-70
2021/06/17 00:26:30;;;;;;;;;;;;;;;23.77;53.91;101172.78;2061014;28;4239;-71
2021/06/17 00:27:57;;;;;;;;;;;;;;;23.77;53.96;101175.66;2060715;28;4399;-71
2021/06/17 00:29:23;;;;;;;;;;;;;;;23.77;53.87;101178.50;2060914;28;4030;-72
2021/06/17 00:30:50;;;;;;;;;;;;;;;23.77;53.90;101172.78;2061254;28;4412;-72
2021/06/17 00:32:17;;;;;;;;;;;;;;;23.77;53.83;101180.53;2060205;28;4083;-71
2021/06/17 00:33:43;;;;;;;;;;;;;;;23.77;53.91;101178.50;2060527;28;4377;-72
2021/06/17 00:35:09;;;;;;;;;;;;;;;23.78;53.97;101179.34;2060672;28;3918;-71
2021/06/17 00:36:36;;;;;;;;;;;;;;;23.77;53.89;101178.50;2060905;28;4367;-71
2021/06/17 00:38:04;;;;;;;;;;;;;;;23.76;53.93;101174.00;2060720;28;4461;-77
2021/06/17 00:39:31;;;;;;;;;;;;;;;23.75;53.84;101172.31;2061563;28;4384;-77
2021/06/17 00:40:58;;;;;;;;;;;;;;;23.72;53.69;101175.09;2060350;28;3918;-74
2021/06/17 00:42:24;;;;;;;;;;;;;;;23.71;53.62;101167.72;2060197;28;4207;-72
2021/06/17 00:43:51;;;;;;;;;;;;;;;23.71;53.54;101170.56;2060399;28;4666;-71
2021/06/17 00:45:18;;;;;;;;;;;;;;;23.71;53.56;101167.72;2060864;28;3787;-72
2021/06/17 00:46:45;;;;;;;;;;;;;;;23.71;53.46;101171.41;2060747;28;4299;-73
2021/06/17 00:48:11;;;;;;;;;;;;;;;23.71;53.37;101171.41;2060182;28;3850;-73
2021/06/17 00:49:37;;;;;;;;;;;;;;;23.72;53.45;101169.38;2059868;28;4026;-73
2021/06/17 00:51:04;;;;;;;;;;;;;;;23.73;53.35;101173.88;2060769;28;4277;-73
2021/06/17 00:52:30;;;;;;;;;;;;;;;23.72;53.40;101166.50;2060310;28;4217;-72
2021/06/17 00:53:57;;;;;;;;;;;;;;;23.73;53.36;101162.44;2061098;28;3986;-74
2021/06/17 00:55:24;;;;;;;;;;;;;;;23.71;53.32;101162.84;2060545;28;4903;-72
2021/06/17 00:56:50;;;;;;;;;;;;;;;23.73;53.35;101162.44;2060175;28;3788;-73
2021/06/17 00:58:16;;;;;;;;;;;;;;;23.72;53.41;101164.47;2060059;28;3793;-72
2021/06/17 00:59:43;;;;;;;;;;;;;;;23.73;53.33;101168.16;2059995;28;4235;-71
2021/06/17 01:01:10;;;;;;;;;;;;;;;23.72;53.39;101167.34;2061083;28;3949;-71
2021/06/17 01:02:37;;;;;;;;;;;;;;;23.73;53.38;101171.03;2059622;28;4047;-72
2021/06/17 01:04:03;;;;;;;;;;;;;;;23.72;53.37;101166.50;2060899;28;4019;-72
2021/06/17 01:05:29;;;;;;;;;;;;;;;23.73;53.51;101168.16;2060505;28;4187;-72
2021/06/17 01:06:56;;;;;;;;;;;;;;;23.71;53.42;101159.16;2060361;28;3781;-72
2021/06/17 01:08:23;;;;;;;;;;;;;;;23.71;53.46;101165.69;2059508;28;4198;-72
2021/06/17 01:09:52;;;;;;;;;;;;;;;23.71;53.52;101162.84;2060469;28;4071;-74
2021/06/17 01:11:18;;;;;;;;;;;;;;;23.71;53.44;101170.56;2060307;28;4329;-72
2021/06/17 01:12:45;;;;;;;;;;;;;;;23.71;53.55;101157.13;2059853;28;4707;-72
2021/06/17 01:14:11;;;;;;;;;;;;;;;23.72;53.46;101160.81;2060733;28;3935;-72
2021/06/17 01:15:38;;;;;;;;;;;;;;;23.73;53.52;101162.44;2060643;28;4395;-72
2021/06/17 01:17:18;;;;;;;;;;;;;;;23.72;53.51;101157.94;2060851;28;4128;-72
2021/06/17 01:18:44;;;;;;;;;;;;;;;23.72;53.51;101146.50;2058899;28;4199;-73
2021/06/17 01:20:11;;;;;;;;;;;;;;;23.73;53.52;101156.75;2060830;28;4062;-71
2021/06/17 01:21:38;;;;;;;;;;;;;;;23.73;53.56;101148.16;2060354;28;4200;-71
2021/06/17 01:23:04;;;;;;;;;;;;;;;23.72;53.59;101153.06;2060500;28;4045;-71
2021/06/17 01:24:30;;;;;;;;;;;;;;;23.72;53.46;101158.78;2061057;28;4217;-70
2021/06/17 01:25:56;;;;;;;;;;;;;;;23.73;53.56;101148.16;2060209;28;4058;-72
2021/06/17 01:27:23;;;;;;;;;;;;;;;23.72;53.54;101155.91;2058246;28;4912;-71
2021/06/17 01:28:50;;;;;;;;;;;;;;;23.72;53.54;101153.06;2057792;28;3976;-71
2021/06/17 01:30:16;;;;;;;;;;;;;;;23.71;53.59;101148.53;2058347;28;4913;-72
2021/06/17 01:31:42;;;;;;;;;;;;;;;23.73;53.61;101151.03;2057928;28;4215;-71
2021/06/17 01:33:08;;;;;;;;;;;;;;;23.73;53.75;101154.72;2060620;28;3772;-70
2021/06/17 01:34:34;;;;;;;;;;;;;;;23.73;53.70;101154.72;2059479;28;4221;-71
2021/06/17 01:36:00;;;;;;;;;;;;;;;23.73;53.72;101159.59;2060010;28;4040;-74
2021/06/17 01:37:27;;;;;;;;;;;;;;;23.73;53.69;101153.88;2060447;28;4026;-77
2021/06/17 01:38:54;;;;;;;;;;;;;;;23.73;53.76;101156.75;2059765;28;3971;-76
2021/06/17 01:40:20;;;;;;;;;;;;;;;23.73;53.69;101153.88;2060923;28;3966;-76
2021/06/17 01:41:46;;;;;;;;;;;;;;;23.69;53.73;101147.22;2061298;28;4065;-73
2021/06/17 01:43:12;;;;;;;;;;;;;;;23.66;53.59;101145.91;2062178;28;3942;-74
2021/06/17 01:44:38;;;;;;;;;;;;;;;23.65;53.59;101147.09;2061166;28;4246;-74
2021/06/17 01:46:04;;;;;;;;;;;;;;;23.65;53.51;101151.97;2060903;28;4046;-81
2021/06/17 01:47:31;;;;;;;;;;;;;;;23.65;53.53;101149.13;2062246;28;4035;-72
2021/06/17 01:48:58;;;;;;;;;;;;;;;23.65;53.52;101140.56;2061740;28;3860;-74
2021/06/17 01:50:25;;;;;;;;;;;;;;;23.67;53.54;101146.75;2062177;28;4203;-81
2021/06/17 01:51:51;;;;;;;;;;;;;;;23.66;53.50;101142.22;2062296;28;3797;-74
2021/06/17 01:53:18;;;;;;;;;;;;;;;23.66;53.42;101143.06;2061477;28;3820;-74
2021/06/17 01:54:44;;;;;;;;;;;;;;;23.67;53.43;101138.16;2062948;28;4173;-74
2021/06/17 01:56:10;;;;;;;;;;;;;;;23.66;53.34;101140.19;2062046;28;3844;-76
2021/06/17 01:57:36;;;;;;;;;;;;;;;23.68;53.44;101139.81;2062303;28;4189;-74
2021/06/17 01:59:06;;;;;;;;;;;;;;;23.67;53.33;101130.44;2061264;28;3956;-75
2021/06/17 02:00:33;;;;;;;;;;;;;;;23.68;53.29;101145.53;2060994;28;4003;-75
2021/06/17 02:01:59;;;;;;;;;;;;;;;23.68;53.51;101143.53;2062353;28;4424;-75
2021/06/17 02:03:25;;;;;;;;;;;;;;;23.69;53.38;101142.31;2061702;28;4198;-76
2021/06/17 02:04:52;;;;;;;;;;;;;;;23.69;53.37;101136.63;2062111;28;4291;-77
2021/06/17 02:06:19;;;;;;;;;;;;;;;23.69;53.33;101135.78;2062281;28;4002;-76
2021/06/17 02:07:45;;;;;;;;;;;;;;;23.69;53.44;101136.63;2060877;28;4337;-76
2021/06/17 02:09:11;;;;;;;;;;;;;;;23.69;53.45;101130.06;2061467;28;4129;-76
2021/06/17 02:10:38;;;;;;;;;;;;;;;23.70;53.44;101131.72;2061650;28;4019;-76
2021/06/17 02:12:04;;;;;;;;;;;;;;;23.70;53.37;101131.72;2062309;28;3812;-75
2021/06/17 02:13:31;;;;;;;;;;;;;;;23.70;53.40;101131.72;2061358;28;4128;-76
2021/06/17 02:14:57;;;;;;;;;;;;;;;23.71;53.24;101127.72;2062096;28;3813;-75
2021/06/17 02:16:23;;;;;;;;;;;;;;;23.70;53.46;101123.97;2062099;28;4110;-76
2021/06/17 02:17:49;;;;;;;;;;;;;;;23.70;53.46;101131.72;2061581;28;4424;-76
2021/06/17 02:19:16;;;;;;;;;;;;;;;23.70;53.41;101121.13;2063027;28;4020;-73
2021/06/17 02:20:43;;;;;;;;;;;;;;;23.71;53.49;101127.72;2061857;28;5134;-73
2021/06/17 02:22:10;;;;;;;;;;;;;;;23.71;53.61;101127.72;2062393;28;4119;-73
2021/06/17 02:23:37;;;;;;;;;;;;;;;23.71;53.58;101124.88;2060817;28;4069;-74
2021/06/17 02:25:04;;;;;;;;;;;;;;;23.71;53.49;101124.88;2061618;28;4152;-73
2021/06/17 02:26:30;;;;;;;;;;;;;;;23.71;53.54;101116.28;2061803;28;4222;-74
2021/06/17 02:27:57;;;;;;;;;;;;;;;23.70;53.54;101120.31;2061204;28;3814;-74
2021/06/17 02:29:23;;;;;;;;;;;;;;;23.70;53.63;101126.00;2061620;28;4222;-72
2021/06/17 02:30:50;;;;;;;;;;;;;;;23.70;53.62;101123.97;2060873;28;3818;-74
2021/06/17 02:32:17;;;;;;;;;;;;;;;23.71;53.57;101122.00;2060303;28;4250;-75
2021/06/17 02:33:43;;;;;;;;;;;;;;;23.71;53.63;101122.00;2059749;28;4206;-72
2021/06/17 02:35:10;;;;;;;;;;;;;;;23.71;53.61;101119.16;2060574;28;4037;-73
2021/06/17 02:36:37;;;;;;;;;;;;;;;23.70;53.75;101115.41;2061016;28;4249;-73
2021/06/17 02:38:03;;;;;;;;;;;;;;;23.71;53.74;101113.44;2061625;28;4094;-73
2021/06/17 02:39:30;;;;;;;;;;;;;;;23.72;53.76;101103.66;2062059;28;4159;-78
2021/06/17 02:40:56;;;;;;;;;;;;;;;23.72;53.94;101109.38;2061482;28;4515;-78
2021/06/17 02:42:23;;;;;;;;;;;;;;;23.72;53.91;101113.06;2061515;28;4193;-76
2021/06/17 02:43:49;;;;;;;;;;;;;;;23.72;53.94;101109.38;2062088;28;3952;-73
2021/06/17 02:45:15;;;;;;;;;;;;;;;23.73;53.97;101099.59;2061078;28;3757;-73
2021/06/17 02:46:43;;;;;;;;;;;;;;;23.73;54.04;101111.84;2060944;28;4008;-74
2021/06/17 02:48:09;;;;;;;;;;;;;;;23.72;53.97;101110.19;2061215;28;3802;-74
2021/06/17 02:49:35;;;;;;;;;;;;;;;23.72;53.94;101115.91;2060650;28;5198;-74
2021/06/17 02:51:01;;;;;;;;;;;;;;;23.72;53.98;101113.06;2060362;28;4446;-74
2021/06/17 02:52:27;;;;;;;;;;;;;;;23.73;53.99;101108.16;2060823;28;4046;-75
2021/06/17 02:53:54;;;;;;;;;;;;;;;23.73;54.11;101099.59;2062118;28;4025;-73
2021/06/17 02:55:20;;;;;;;;;;;;;;;23.73;54.09;101108.16;2060552;28;3843;-73
2021/06/17 02:56:46;;;;;;;;;;;;;;;23.72;53.97;101113.06;2061022;28;4036;-73
2021/06/17 02:58:12;;;;;;;;;;;;;;;23.72;54.01;101113.06;2061505;28;4021;-74
2021/06/17 02:59:38;;;;;;;;;;;;;;;23.74;54.04;101112.72;2060757;28;4180;-75
2021/06/17 03:01:05;;;;;;;;;;;;;;;23.73;54.12;101109.00;2061483;28;3876;-74
2021/06/17 03:02:35;;;;;;;;;;;;;;;23.73;54.14;101109.00;2060179;28;4016;-75
2021/06/17 03:04:01;;;;;;;;;;;;;;;23.73;54.09;101117.56;2060733;28;4074;-74
2021/06/17 03:05:27;;;;;;;;;;;;;;;23.72;54.17;101110.19;2059385;28;4077;-74
2021/06/17 03:06:54;;;;;;;;;;;;;;;23.73;54.19;101116.75;2061468;28;4271;-73
2021/06/17 03:08:20;;;;;;;;;;;;;;;23.72;54.20;101113.06;2061259;28;4217;-75
2021/06/17 03:09:47;;;;;;;;;;;;;;;23.73;54.35;101113.88;2060417;28;4199;-73
2021/06/17 03:11:13;;;;;;;;;;;;;;;23.72;54.24;101109.38;2061454;28;4386;-72
2021/06/17 03:12:40;;;;;;;;;;;;;;;23.73;54.36;101111.03;2059885;28;4011;-72
2021/06/17 03:14:07;;;;;;;;;;;;;;;23.73;54.26;101113.88;2060711;28;4083;-70
2021/06/17 03:15:33;;;;;;;;;;;;;;;23.73;54.40;101117.56;2060352;28;4199;-72
2021/06/17 03:17:00;;;;;;;;;;;;;;;23.73;54.41;101111.03;2061172;28;4079;-78
2021/06/17 03:18:27;;;;;;;;;;;;;;;23.73;54.37;101113.88;2060165;28;4027;-78
2021/06/17 03:19:53;;;;;;;;;;;;;;;23.72;54.38;101113.06;2061018;28;4051;-76
2021/06/17 03:21:20;;;;;;;;;;;;;;;23.73;54.52;101111.03;2060597;28;4029;-81
2021/06/17 03:22:47;;;;;;;;;;;;;;;23.72;54.50;101110.19;2061724;28;4257;-74
2021/06/17 03:24:13;;;;;;;;;;;;;;;23.73;54.58;101108.16;2059891;28;3803;-74
2021/06/17 03:25:39;;;;;;;;;;;;;;;23.73;54.46;101108.16;2061653;28;4177;-74
2021/06/17 03:27:06;;;;;;;;;;;;;;;23.72;54.50;101113.06;2061972;28;3949;-72
2021/06/17 03:28:32;;;;;;;;;;;;;;;23.74;54.42;101109.84;2060608;28;4174;-72
2021/06/17 03:29:58;;;;;;;;;;;;;;;23.73;54.47;101099.59;2061075;28;4090;-73
2021/06/17 03:31:25;;;;;;;;;;;;;;;23.73;54.40;101109.00;2060391;28;4218;-73
2021/06/17 03:32:52;;;;;;;;;;;;;;;23.74;54.48;101101.28;2062022;28;4105;-73
2021/06/17 03:34:18;;;;;;;;;;;;;;;23.73;54.49;101100.44;2061215;28;4077;-73
2021/06/17 03:35:45;;;;;;;;;;;;;;;23.74;54.44;101109.84;2060930;28;4195;-73
2021/06/17 03:37:12;;;;;;;;;;;;;;;23.74;54.54;101101.28;2060787;28;4032;-75
2021/06/17 03:38:39;;;;;;;;;;;;;;;23.73;54.49;101103.28;2061456;28;4213;-76
2021/06/17 03:40:05;;;;;;;;;;;;;;;23.74;54.63;101099.25;2060602;28;3879;-75
2021/06/17 03:41:31;;;;;;;;;;;;;;;23.75;54.84;101095.19;2059885;28;4037;-75
2021/06/17 03:43:00;;;;;;;;;;;;;;;23.75;54.79;101098.03;2061542;28;3906;-75
2021/06/17 03:44:26;;;;;;;;;;;;;;;23.75;54.80;101098.03;2061176;28;4213;-73
2021/06/17 03:45:53;;;;;;;;;;;;;;;23.75;54.94;101103.75;2060747;28;4098;-73
2021/06/17 03:47:20;;;;;;;;;;;;;;;23.75;54.78;101100.06;2061358;28;4068;-72
2021/06/17 03:48:46;;;;;;;;;;;;;;;23.75;54.84;101102.94;2059545;28;4349;-73
2021/06/17 03:50:12;;;;;;;;;;;;;;;23.74;54.74;101102.09;2061741;28;4090;-73
2021/06/17 03:51:38;;;;;;;;;;;;;;;23.75;54.69;101102.94;2060891;28;4093;-74
2021/06/17 03:53:04;;;;;;;;;;;;;;;23.75;54.87;101100.91;2061236;28;4329;-75
2021/06/17 03:54:30;;;;;;;;;;;;;;;23.75;54.77;101100.91;2060763;28;4002;-74
2021/06/17 03:55:57;;;;;;;;;;;;;;;23.75;54.72;101105.78;2059925;28;4089;-72
2021/06/17 03:57:24;;;;;;;;;;;;;;;23.76;54.71;101104.56;2060824;28;4170;-75
2021/06/17 03:58:50;;;;;;;;;;;;;;;23.76;54.70;101110.28;2060690;28;4090;-73
2021/06/17 04:00:16;;;;;;;;;;;;;;;23.74;54.70;101104.13;2061199;28;4182;-74
2021/06/17 04:01:42;;;;;;;;;;;;;;;23.75;54.82;101100.06;2060071;28;4206;-73
2021/06/17 04:03:08;;;;;;;;;;;;;;;23.76;54.86;101113.16;2060054;28;3923;-73
2021/06/17 04:04:34;;;;;;;;;;;;;;;23.75;54.79;101094.34;2060838;28;4219;-72
2021/06/17 04:06:01;;;;;;;;;;;;;;;23.75;54.89;101108.66;2060927;28;3886;-73
2021/06/17 04:07:28;;;;;;;;;;;;;;;23.75;54.74;101102.94;2060086;28;4201;-71
2021/06/17 04:08:55;;;;;;;;;;;;;;;23.76;54.85;101113.16;2060889;28;4046;-73
2021/06/17 04:10:22;;;;;;;;;;;;;;;23.75;54.81;101109.47;2060598;28;4195;-73
2021/06/17 04:11:48;;;;;;;;;;;;;;;23.75;54.84;101100.06;2060813;28;4144;-74
2021/06/17 04:13:14;;;;;;;;;;;;;;;23.76;54.82;101110.28;2060944;28;3847;-74
2021/06/17 04:14:41;;;;;;;;;;;;;;;23.75;54.75;101100.91;2060305;28;4041;-72
2021/06/17 04:16:07;;;;;;;;;;;;;;;23.76;54.83;101107.44;2060826;28;4036;-72
2021/06/17 04:17:35;;;;;;;;;;;;;;;23.76;54.96;101101.72;2060389;28;4192;-73
2021/06/17 04:19:01;;;;;;;;;;;;;;;23.75;54.84;101103.75;2060659;28;4041;-74
2021/06/17 04:20:27;;;;;;;;;;;;;;;23.76;54.89;101104.56;2059817;28;4228;-73
2021/06/17 04:21:54;;;;;;;;;;;;;;;23.76;54.99;101105.44;2061251;28;4042;-73
2021/06/17 04:23:20;;;;;;;;;;;;;;;23.76;55.00;101113.16;2060917;28;4075;-73
2021/06/17 04:24:47;;;;;;;;;;;;;;;23.76;54.83;101113.16;2061203;28;5483;-75
2021/06/17 04:26:13;;;;;;;;;;;;;;;23.76;54.89;101116.00;2061515;28;3902;-76
2021/06/17 04:27:40;;;;;;;;;;;;;;;23.75;54.87;101111.50;2060857;28;4207;-75
2021/06/17 04:29:07;;;;;;;;;;;;;;;23.76;54.77;101107.44;2061236;28;4144;-77
2021/06/17 04:30:33;;;;;;;;;;;;;;;23.75;54.93;101115.19;2060643;28;4166;-74
2021/06/17 04:31:59;;;;;;;;;;;;;;;23.76;54.80;101110.28;2061596;28;4080;-74
2021/06/17 04:33:26;;;;;;;;;;;;;;;23.76;54.95;101119.72;2060190;28;4216;-72
2021/06/17 04:34:52;;;;;;;;;;;;;;;23.76;54.98;101125.44;2059009;28;4110;-81
2021/06/17 04:36:19;;;;;;;;;;;;;;;23.78;55.08;101119.34;2065890;28;4060;-92
2021/06/17 04:37:45;;;;;;;;;;;;;;;23.76;54.99;101119.72;2060899;28;4263;-85
2021/06/17 04:39:11;;;;;;;;;;;;;;;23.78;54.95;101127.91;2061763;28;3971;-90
2021/06/17 04:40:37;;;;;;;;;;;;;;;23.78;54.96;101125.06;2061512;28;4189;-85
2021/06/17 04:42:03;;;;;;;;;;;;;;;23.79;55.10;101123.84;2061147;28;4045;-80
2021/06/17 04:43:30;;;;;;;;;;;;;;;23.77;54.96;101127.09;2060072;28;4025;-81
2021/06/17 04:44:57;;;;;;;;;;;;;;;23.78;55.09;101133.63;2060965;28;3950;-79
2021/06/17 04:46:24;;;;;;;;;;;;;;;23.78;55.12;101130.75;2060577;28;4255;-77
2021/06/17 04:47:51;;;;;;;;;;;;;;;23.78;54.99;101128.72;2059895;28;3901;-75
2021/06/17 04:49:18;;;;;;;;;;;;;;;23.78;55.08;101133.63;2060815;28;4040;-77
2021/06/17 04:50:44;;;;;;;;;;;;;;;23.79;55.14;101135.28;2060053;28;4038;-81
2021/06/17 04:52:10;;;;;;;;;;;;;;;23.79;55.18;101135.28;2060553;28;4078;-74
2021/06/17 04:53:36;;;;;;;;;;;;;;;23.81;55.15;101137.78;2060855;28;4213;-78
2021/06/17 04:55:03;;;;;;;;;;;;;;;23.80;55.08;101136.94;2060899;28;4095;-78
2021/06/17 04:56:30;;;;;;;;;;;;;;;23.80;55.13;101147.56;2059600;28;4071;-81
2021/06/17 04:57:56;;;;;;;;;;;;;;;23.80;55.19;101141.84;2061570;28;3905;-86
2021/06/17 04:59:23;;;;;;;;;;;;;;;23.79;55.12;101146.69;2057907;28;4212;-79
2021/06/17 05:00:50;;;;;;;;;;;;;;;23.80;55.22;101145.53;2059206;28;3921;-74
2021/06/17 05:02:17;;;;;;;;;;;;;;;23.81;55.19;101144.31;2060353;28;4066;-85
2021/06/17 05:03:43;;;;;;;;;;;;;;;23.81;55.26;101141.47;2061877;28;4038;-81
2021/06/17 05:05:10;;;;;;;;;;;;;;;23.82;55.27;101146.00;2058782;28;3924;-77
2021/06/17 05:06:40;;;;;;;;;;;;;;;23.82;55.23;101148.00;2059217;28;4227;-82
2021/06/17 05:11:30;;;;;;;;;;;;;;;23.81;55.27;101143.50;2059849;28;4283;-73
2021/06/17 05:12:56;;;;;;;;;;;;;;;23.81;55.18;101141.47;2060848;28;4066;-73
2021/06/17 05:14:23;;;;;;;;;;;;;;;23.81;55.24;101141.47;2060924;28;4196;-73
2021/06/17 05:15:50;;;;;;;;;;;;;;;23.81;55.23;101150.03;2061270;28;3912;-74
2021/06/17 05:17:16;;;;;;;;;;;;;;;23.81;55.12;101143.50;2061610;28;4061;-74
2021/06/17 05:18:42;;;;;;;;;;;;;;;23.80;55.14;101147.56;2061258;28;4042;-74
2021/06/17 05:20:08;;;;;;;;;;;;;;;23.81;55.27;101146.34;2060747;28;4103;-73
2021/06/17 05:21:34;;;;;;;;;;;;;;;23.81;55.25;101150.03;2062134;28;4219;-75
2021/06/17 05:23:00;;;;;;;;;;;;;;;23.81;55.27;101147.19;2062036;28;4080;-74
2021/06/17 05:24:31;;;;;;;;;;;;;;;23.82;55.23;101139.44;2061614;28;4135;-72
2021/06/17 05:25:58;;;;;;;;;;;;;;;23.82;55.19;101150.84;2060945;28;4103;-71
2021/06/17 05:27:24;;;;;;;;;;;;;;;23.82;55.23;101143.13;2061572;28;4167;-70
2021/06/17 05:28:51;;;;;;;;;;;;;;;23.82;55.17;101151.72;2062398;28;4125;-71
2021/06/17 05:30:18;;;;;;;;;;;;;;;23.82;55.27;101145.13;2061136;28;4114;-71
2021/06/17 05:31:44;;;;;;;;;;;;;;;23.82;55.24;101142.28;2061867;28;4037;-71
2021/06/17 05:33:10;;;;;;;;;;;;;;;23.83;55.33;101144.78;2061788;28;4029;-72
2021/06/17 05:34:37;;;;;;;;;;;;;;;23.83;55.31;101144.78;2061896;28;4197;-73
2021/06/17 05:36:04;;;;;;;;;;;;;;;23.83;55.41;101141.94;2060909;28;3905;-73
2021/06/17 05:37:31;;;;;;;;;;;;;;;23.84;55.35;101148.47;2060736;28;4214;-73
2021/06/17 05:38:57;;;;;;;;;;;;;;;23.84;55.42;101149.28;2061693;28;3892;-73
2021/06/17 05:40:24;;;;;;;;;;;;;;;23.85;55.23;101145.25;2059977;28;4268;-72
2021/06/17 05:41:50;;;;;;;;;;;;;;;23.85;55.47;101142.41;2061754;28;3978;-73
2021/06/17 05:43:16;;;;;;;;;;;;;;;23.86;55.66;101148.94;2061572;28;3891;-73
2021/06/17 05:44:44;;;;;;;;;;;;;;;23.87;55.55;101145.72;2060688;28;4420;-73
2021/06/17 05:46:10;;;;;;;;;;;;;;;23.87;55.58;101150.59;2062458;28;4024;-73
2021/06/17 05:47:37;;;;;;;;;;;;;;;23.87;55.51;101144.88;2061320;28;4212;-73
2021/06/17 05:49:04;;;;;;;;;;;;;;;23.85;55.49;101142.41;2061854;28;4068;-74
2021/06/17 05:50:30;;;;;;;;;;;;;;;23.86;55.59;101144.06;2061768;28;4406;-71
2021/06/17 05:51:57;;;;;;;;;;;;;;;23.86;55.56;101144.06;2062279;28;4049;-71
2021/06/17 05:53:23;;;;;;;;;;;;;;;23.86;55.44;101144.06;2061810;28;4255;-71
2021/06/17 05:54:49;;;;;;;;;;;;;;;23.86;55.43;101152.63;2062437;28;4068;-71
2021/06/17 05:56:15;;;;;;;;;;;;;;;23.85;55.39;101145.25;2062296;28;3919;-72
2021/06/17 05:57:43;;;;;;;;;;;;;;;23.86;55.46;101149.78;2061795;28;4244;-73
2021/06/17 05:59:09;;;;;;;;;;;;;;;23.87;55.54;101153.44;2062637;28;4111;-72
2021/06/17 06:00:36;;;;;;;;;;;;;;;23.87;55.53;101150.59;2061498;28;4004;-72
2021/06/17 06:02:03;;;;;;;;;;;;;;;23.87;55.57;101148.56;2062413;28;3924;-73
2021/06/17 06:03:29;;;;;;;;;;;;;;;23.87;55.50;101148.56;2061020;28;4049;-77
2021/06/17 06:04:55;;;;;;;;;;;;;;;23.85;55.42;101144.44;2061973;28;3901;-79
2021/06/17 06:06:22;;;;;;;;;;;;;;;23.82;55.50;101142.28;2062358;28;4210;-74
2021/06/17 06:07:48;;;;;;;;;;;;;;;23.79;55.37;101155.28;2061234;28;4047;-76
2021/06/17 06:09:14;;;;;;;;;;;;;;;23.77;55.24;101141.38;2053755;28;3937;-79
2021/06/17 06:10:40;;;;;;;;;;;;;;;23.75;55.31;101140.06;2060242;28;4201;-74
2021/06/17 06:12:07;;;;;;;;;;;;;;;23.75;55.24;101142.94;2062568;28;4033;-79
2021/06/17 06:13:33;;;;;;;;;;;;;;;23.74;55.21;101144.13;2061478;28;4234;-74
2021/06/17 06:15:00;;;;;;;;;;;;;;;23.74;55.18;101144.13;2061522;28;3929;-74
2021/06/17 06:16:28;;;;;;;;;;;;;;;23.72;55.12;101140.81;2061984;28;4747;-76
2021/06/17 06:17:55;;;;;;;;;;;;;;;23.72;55.24;101147.34;2062065;28;4112;-76
2021/06/17 06:19:22;;;;;;;;;;;;;;;23.72;55.09;101152.22;2061507;28;4196;-77
2021/06/17 06:20:48;;;;;;;;;;;;;;;23.72;55.11;101146.50;2062740;28;4013;-76
2021/06/17 06:22:14;;;;;;;;;;;;;;;23.70;55.11;101143.97;2061998;28;3871;-74
2021/06/17 06:23:41;;;;;;;;;;;;;;;23.70;55.15;101149.69;2061936;28;4022;-74
2021/06/17 06:25:08;;;;;;;;;;;;;;;23.69;55.06;101148.03;2061501;28;3790;-76
2021/06/17 06:26:35;;;;;;;;;;;;;;;23.71;55.11;101144.88;2060851;28;4190;-77
2021/06/17 06:28:02;;;;;;;;;;;;;;;23.70;55.11;101143.16;2061472;28;3903;-74
2021/06/17 06:29:29;;;;;;;;;;;;;;;23.70;55.07;101148.88;2060890;28;4244;-76
2021/06/17 06:30:56;;;;;;;;;;;;;;;23.70;54.98;101148.88;2061958;28;3813;-75
2021/06/17 06:32:22;;;;;;;;;;;;;;;23.71;55.06;101153.44;2061400;28;4022;-74
2021/06/17 06:33:49;;;;;;;;;;;;;;;23.70;55.13;101148.88;2062246;28;3908;-74
2021/06/17 06:35:15;;;;;;;;;;;;;;;23.70;55.12;101154.56;2061835;28;4085;-73
2021/06/17 06:36:42;;;;;;;;;;;;;;;23.70;55.14;101154.56;2061509;28;4186;-74
2021/06/17 06:38:08;;;;;;;;;;;;;;;23.68;55.01;101157.81;2061517;28;3898;-74
2021/06/17 06:39:35;;;;;;;;;;;;;;;23.69;55.22;101158.66;2061744;28;4201;-73
2021/06/17 06:41:02;;;;;;;;;;;;;;;23.67;55.18;101153.28;2062837;28;3751;-74
2021/06/17 06:42:29;;;;;;;;;;;;;;;23.67;55.09;101155.31;2060934;28;4193;-73
2021/06/17 06:43:55;;;;;;;;;;;;;;;23.68;55.09;101162.69;2061657;28;3900;-72
2021/06/17 06:45:21;;;;;;;;;;;;;;;23.67;55.12;101158.16;2061066;28;4077;-71
2021/06/17 06:46:50;;;;;;;;;;;;;;;23.66;55.13;101159.38;2061399;28;4190;-71
2021/06/17 06:48:18;;;;;;;;;;;;;;;23.65;55.04;101158.53;2061793;28;3949;-71
2021/06/17 06:49:44;;;;;;;;;;;;;;;23.65;55.15;101163.41;2060405;28;4176;-71
2021/06/17 06:51:11;;;;;;;;;;;;;;;23.64;55.19;101161.75;2062490;28;3983;-71
2021/06/17 06:52:38;;;;;;;;;;;;;;;23.64;55.09;101161.75;2061068;28;4026;-71
2021/06/17 06:54:04;;;;;;;;;;;;;;;23.63;55.19;101163.78;2060962;28;3993;-72
2021/06/17 06:55:31;;;;;;;;;;;;;;;23.63;55.17;101158.06;2060412;28;4033;-71
2021/06/17 06:56:57;;;;;;;;;;;;;;;23.63;55.17;101171.53;2061122;28;3976;-71
2021/06/17 06:58:24;;;;;;;;;;;;;;;23.62;55.14;101169.84;2061736;28;4202;-71
2021/06/17 06:59:51;;;;;;;;;;;;;;;23.61;55.06;101169.03;2061510;28;3987;-71
2021/06/17 07:01:17;;;;;;;;;;;;;;;23.62;55.13;101175.56;2061417;28;3789;-71
2021/06/17 07:02:44;;;;;;;;;;;;;;;23.61;55.16;101168.19;2061380;28;4005;-71
2021/06/17 07:04:10;;;;;;;;;;;;;;;23.61;55.14;101176.78;2061191;28;3818;-71
2021/06/17 07:05:36;;;;;;;;;;;;;;;23.61;55.11;101179.63;2061523;28;4222;-72
2021/06/17 07:07:02;;;;;;;;;;;;;;;23.56;55.09;101170.09;2061749;28;3919;-72
2021/06/17 07:08:29;;;;;;;;;;;;;;;23.59;55.10;101174.25;2060548;28;4208;-71
2021/06/17 07:09:55;;;;;;;;;;;;;;;23.59;55.08;101170.56;2061915;28;3972;-71
2021/06/17 07:11:22;;;;;;;;;;;;;;;23.59;55.10;101173.44;2061036;28;4161;-71
2021/06/17 07:12:49;;;;;;;;;;;;;;;23.59;55.05;101176.28;2061997;28;3908;-71
2021/06/17 07:14:16;;;;;;;;;;;;;;;23.58;55.01;101171.78;2061391;28;3771;-71
2021/06/17 07:15:43;;;;;;;;;;;;;;;23.58;55.04;101174.63;2061895;28;4051;-71
2021/06/17 07:17:10;;;;;;;;;;;;;;;23.58;55.01;101168.94;2061755;28;3775;-71
2021/06/17 07:18:37;;;;;;;;;;;;;;;23.56;55.09;101167.25;2061431;28;4007;-72
2021/06/17 07:20:04;;;;;;;;;;;;;;;23.56;55.05;101170.09;2060730;28;5168;-71
2021/06/17 07:21:30;;;;;;;;;;;;;;;23.58;55.03;101171.78;2060437;28;4238;-70
2021/06/17 07:22:57;;;;;;;;;;;;;;;23.56;55.09;101169.28;2061993;28;3967;-71
2021/06/17 07:24:23;;;;;;;;;;;;;;;23.56;55.08;101175.81;2061392;28;4123;-72
2021/06/17 07:25:49;;;;;;;;;;;;;;;23.55;54.98;101167.63;2060605;28;3848;-73
2021/06/17 07:27:15;;;;;;;;;;;;;;;23.55;55.04;101176.19;2061753;28;3821;-71
2021/06/17 07:28:42;;;;;;;;;;;;;;;23.55;55.01;101174.16;2061170;28;4223;-71
2021/06/17 07:30:09;;;;;;;;;;;;;;;23.55;55.04;101173.34;2060968;28;3840;-71
2021/06/17 07:31:39;;;;;;;;;;;;;;;23.55;55.05;101177.03;2060654;28;4209;-72
2021/06/17 07:33:07;;;;;;;;;;;;;;;23.54;55.01;101183.94;2062234;28;4192;-71
2021/06/17 07:34:34;;;;;;;;;;;;;;;23.54;54.97;101177.38;2060597;28;4094;-71